OTBDOBBI

Guest
Details From OTBD - DOHA INTL
To OBBI - BAHRAIN INTL
Flight Number -
Tags generated
Created
Modified
Stats Distance 79 nm / 146 km
Max Altitude 100 ft / 30 m
Waypoints 3
Social Downloads 9
Likes 0
Share VATSIM

Download

Looking for another format? Having issues loading an existing format? Contact us
Advertisement - Login to hide

Notes

Basic altitude profile: - Ascent Rate: 2500ft/min - Ascent Speed: 250kts - Cruise Altitude: 32000ft - Cruise Speed: 320kts - Descent Rate: 1500ft/min - Descent Speed: 200kts Options: - Use NATs: yes - Use PACOTS: yes - Use low airways: no - Use high airways: yes

Route

OTBD BAH OBBI

ID Type Via Altitude Latitude Longitude Leg Dist Tot Dist Heading (true) Name
O OTBD APT - 0 ft / 0 m 25.26106˚ 51.56500˚ - 0 nm - DOHA INTL
BAH VOR - 100 ft / 30 m 26.26419˚ 50.64885˚ 78 nm 78 nm 321° / 320° BAHRAIN VOR-DME
O OBBI APT - 0 ft / 0 m 26.26784˚ 50.63710˚ 0 nm 78 nm 289° / 289° BAHRAIN INTL

Altitude Profile

Advertisement - Login to hide

OTBD

Details ICAO OTBD (DOH)
Name DOHA INTL
Region Qatar
Timezone Asia/Qatar (UTC+3.0)
Stats Elevation 35 ft / 11 m (AMSL)
Location 25.261056° 51.564999°
Runways 1
Magnetic Variation 2.482° E

METAR

OTBD 180800Z 35011KT 320V020 9999 FEW030 24/14 Q1022 NOSIG

Decode

TAF

TAF OTBD 180509Z 1806/1912 32008KT 9999 FEW030 BECMG 1808/1810 03007KT BECMG 1817/1819 33008KT

Decode

Departure Runways

ID Width Length Bearing (true) Bearing (mag) Surface Threshold Offset Overrun Length
16 151 ft / 46 m 15,065 ft / 4,592 m 158.20° 155.72° Asphalt 2,460 ft / 750 m 98 ft / 30 m
34 151 ft / 46 m 15,065 ft / 4,592 m 338.21° 335.73° Asphalt 0 ft / 0 m 460 ft / 140 m

OBBI

Details ICAO OBBI (BAH)
Name BAHRAIN INTL
Region Bahrain
Timezone Asia/Bahrain (UTC+3.0)
Stats Elevation 6 ft / 2 m (AMSL)
Location 26.267837° 50.637095°
Runways 2
Magnetic Variation 2.762° E

METAR

OBBI 180830Z 01011KT 9999 FEW040 23/15 Q1023 NOSIG

Decode

TAF

TAF OBBI 180500Z 1806/1912 34010KT 9999 FEW030= TAF OMAA 180500Z 1806/1912 VRB02KT 8000 FEW040 BECMG 1806/1807 35012KT PROB30 TEMPO 1806/1808 VRB15G25KT 4500 BLDU FEW050TCU BECMG 1818/1820 VRB02KT BECMG 1905/1907 35010KT

Decode

Destination Runways

ID Width Length Bearing (true) Bearing (mag) Surface Threshold Offset Overrun Length
12L 197 ft / 60 m 12,893 ft / 3,930 m 122.74° 119.98° Asphalt 1,000 ft / 305 m 0 ft / 0 m
12R 148 ft / 45 m 8,303 ft / 2,531 m 122.76° 120.00° Asphalt 1,000 ft / 305 m 0 ft / 0 m
30L 148 ft / 45 m 8,303 ft / 2,531 m 302.77° 300.01° Asphalt 395 ft / 120 m 0 ft / 0 m
30R 197 ft / 60 m 12,893 ft / 3,930 m 302.75° 299.99° Asphalt 1,000 ft / 305 m 0 ft / 0 m

Approach Navaids

Runway Type Ident Frequency Range Bearing (true) Bearing (mag) Slope Elevation
12L Localiser IBIB 111.50 MHz 18 nm / 33 km 122.74° 119.98° - 6 ft / 2 m (AMSL)
12L Glidescope IBIB 111.50 MHz 10 nm / 19 km 122.75° 119.98° 3.00° 6 ft / 2 m (AMSL)
12L DME IBIB 111.50 MHz 18 nm / 33 km - - - 42 ft / 13 m (AMSL)
30R Localiser IBIA 110.30 MHz 18 nm / 33 km 302.77° 300.01° - 6 ft / 2 m (AMSL)
30R Glidescope IBIA 110.30 MHz 10 nm / 19 km 302.75° 299.98° 3.00° 6 ft / 2 m (AMSL)
30R DME IBIA 110.30 MHz 18 nm / 33 km - - - 42 ft / 13 m (AMSL)

Popular Alternatives